sensor_id;sensor_type;location;lat;lon;timestamp;P1;durP1;ratioP1;P2;durP2;ratioP2
48363;SDS011;34170;54.364;18.582;2022-08-21T00:12:55;12.20;;;10.93;;
48363;SDS011;34170;54.364;18.582;2022-08-21T00:15:27;12.43;;;10.65;;
48363;SDS011;34170;54.364;18.582;2022-08-21T00:17:56;13.30;;;10.40;;
48363;SDS011;34170;54.364;18.582;2022-08-21T00:20:24;10.45;;;9.25;;
48363;SDS011;34170;54.364;18.582;2022-08-21T00:22:52;10.80;;;8.63;;
48363;SDS011;34170;54.364;18.582;2022-08-21T00:25:20;8.98;;;7.88;;
48363;SDS011;34170;54.364;18.582;2022-08-21T00:32:23;9.48;;;7.53;;
48363;SDS011;34170;54.364;18.582;2022-08-21T00:34:52;8.95;;;8.05;;
48363;SDS011;34170;54.364;18.582;2022-08-21T00:49:23;8.90;;;7.60;;
48363;SDS011;34170;54.364;18.582;2022-08-21T00:51:54;9.20;;;8.30;;
48363;SDS011;34170;54.364;18.582;2022-08-21T00:54:26;9.57;;;7.28;;
48363;SDS011;34170;54.364;18.582;2022-08-21T00:56:57;7.72;;;6.90;;
48363;SDS011;34170;54.364;18.582;2022-08-21T00:59:29;7.95;;;7.15;;
48363;SDS011;34170;54.364;18.582;2022-08-21T01:02:01;7.68;;;6.88;;
48363;SDS011;34170;54.364;18.582;2022-08-21T01:04:30;9.95;;;7.25;;
48363;SDS011;34170;54.364;18.582;2022-08-21T01:06:57;7.32;;;6.03;;
48363;SDS011;34170;54.364;18.582;2022-08-21T01:09:25;6.50;;;5.57;;
48363;SDS011;34170;54.364;18.582;2022-08-21T01:11:53;7.88;;;6.35;;
48363;SDS011;34170;54.364;18.582;2022-08-21T01:14:20;6.50;;;5.90;;
48363;SDS011;34170;54.364;18.582;2022-08-21T01:16:48;7.13;;;6.20;;
48363;SDS011;34170;54.364;18.582;2022-08-21T01:19:18;7.73;;;6.37;;
48363;SDS011;34170;54.364;18.582;2022-08-21T01:21:47;7.78;;;6.55;;
48363;SDS011;34170;54.364;18.582;2022-08-21T01:24:15;6.88;;;6.22;;
48363;SDS011;34170;54.364;18.582;2022-08-21T01:26:42;7.97;;;6.95;;
48363;SDS011;34170;54.364;18.582;2022-08-21T01:32:06;7.93;;;7.13;;
48363;SDS011;34170;54.364;18.582;2022-08-21T01:34:39;7.68;;;6.45;;
48363;SDS011;34170;54.364;18.582;2022-08-21T01:41:39;8.20;;;6.80;;
48363;SDS011;34170;54.364;18.582;2022-08-21T01:44:06;7.75;;;6.43;;
48363;SDS011;34170;54.364;18.582;2022-08-21T01:46:34;6.95;;;5.97;;
48363;SDS011;34170;54.364;18.582;2022-08-21T01:49:02;7.90;;;7.10;;
48363;SDS011;34170;54.364;18.582;2022-08-21T01:51:30;8.45;;;7.00;;
48363;SDS011;34170;54.364;18.582;2022-08-21T01:53:58;7.85;;;6.82;;
48363;SDS011;34170;54.364;18.582;2022-08-21T01:56:25;7.63;;;6.82;;
48363;SDS011;34170;54.364;18.582;2022-08-21T01:58:55;7.80;;;6.07;;
48363;SDS011;34170;54.364;18.582;2022-08-21T02:01:22;6.22;;;5.60;;
48363;SDS011;34170;54.364;18.582;2022-08-21T02:03:49;6.70;;;5.88;;
48363;SDS011;34170;54.364;18.582;2022-08-21T02:16:00;6.60;;;5.90;;
48363;SDS011;34170;54.364;18.582;2022-08-21T02:32:00;6.95;;;6.25;;
48363;SDS011;34170;54.364;18.582;2022-08-21T02:34:29;7.65;;;6.90;;
48363;SDS011;34170;54.364;18.582;2022-08-21T02:41:27;8.98;;;8.10;;
48363;SDS011;34170;54.364;18.582;2022-08-21T02:43:54;8.88;;;7.80;;
48363;SDS011;34170;54.364;18.582;2022-08-21T02:46:22;8.55;;;7.10;;
48363;SDS011;34170;54.364;18.582;2022-08-21T02:48:49;9.48;;;8.25;;
48363;SDS011;34170;54.364;18.582;2022-08-21T02:51:17;9.35;;;8.23;;
48363;SDS011;34170;54.364;18.582;2022-08-21T02:53:46;8.07;;;7.30;;
48363;SDS011;34170;54.364;18.582;2022-08-21T02:56:15;11.80;;;10.60;;
48363;SDS011;34170;54.364;18.582;2022-08-21T02:58:46;10.73;;;9.63;;
48363;SDS011;34170;54.364;18.582;2022-08-21T03:03:44;9.57;;;8.57;;
48363;SDS011;34170;54.364;18.582;2022-08-21T03:06:14;10.52;;;9.43;;
48363;SDS011;34170;54.364;18.582;2022-08-21T03:08:43;10.52;;;8.75;;
48363;SDS011;34170;54.364;18.582;2022-08-21T03:11:12;11.25;;;8.65;;
48363;SDS011;34170;54.364;18.582;2022-08-21T03:13:41;9.85;;;8.95;;
48363;SDS011;34170;54.364;18.582;2022-08-21T03:16:09;10.05;;;8.57;;
48363;SDS011;34170;54.364;18.582;2022-08-21T03:18:37;10.07;;;8.57;;
48363;SDS011;34170;54.364;18.582;2022-08-21T03:21:05;9.20;;;8.30;;
48363;SDS011;34170;54.364;18.582;2022-08-21T03:23:33;10.73;;;8.82;;
48363;SDS011;34170;54.364;18.582;2022-08-21T03:26:00;10.43;;;9.30;;
48363;SDS011;34170;54.364;18.582;2022-08-21T03:28:28;10.07;;;8.98;;
48363;SDS011;34170;54.364;18.582;2022-08-21T03:30:55;9.50;;;8.52;;
48363;SDS011;34170;54.364;18.582;2022-08-21T03:33:23;10.68;;;9.00;;
48363;SDS011;34170;54.364;18.582;2022-08-21T03:36:01;8.32;;;7.47;;
48363;SDS011;34170;54.364;18.582;2022-08-21T03:38:34;11.75;;;8.10;;
48363;SDS011;34170;54.364;18.582;2022-08-21T03:41:02;8.90;;;8.00;;
48363;SDS011;34170;54.364;18.582;2022-08-21T03:43:30;8.77;;;7.88;;
48363;SDS011;34170;54.364;18.582;2022-08-21T03:46:02;9.40;;;8.50;;
48363;SDS011;34170;54.364;18.582;2022-08-21T03:48:31;9.73;;;8.73;;
48363;SDS011;34170;54.364;18.582;2022-08-21T03:51:00;10.05;;;9.05;;
48363;SDS011;34170;54.364;18.582;2022-08-21T03:53:27;9.25;;;8.35;;
48363;SDS011;34170;54.364;18.582;2022-08-21T03:55:55;10.57;;;8.68;;
48363;SDS011;34170;54.364;18.582;2022-08-21T03:58:23;9.65;;;8.65;;
48363;SDS011;34170;54.364;18.582;2022-08-21T04:00:53;10.85;;;8.40;;
48363;SDS011;34170;54.364;18.582;2022-08-21T04:03:22;10.10;;;9.05;;
48363;SDS011;34170;54.364;18.582;2022-08-21T04:05:50;11.10;;;8.68;;
48363;SDS011;34170;54.364;18.582;2022-08-21T04:08:18;9.35;;;8.32;;
48363;SDS011;34170;54.364;18.582;2022-08-21T04:10:46;10.35;;;9.00;;
48363;SDS011;34170;54.364;18.582;2022-08-21T04:13:15;9.52;;;7.70;;
48363;SDS011;34170;54.364;18.582;2022-08-21T04:15:43;9.05;;;7.95;;
48363;SDS011;34170;54.364;18.582;2022-08-21T04:18:10;8.45;;;7.53;;
48363;SDS011;34170;54.364;18.582;2022-08-21T04:20:38;9.30;;;7.90;;
48363;SDS011;34170;54.364;18.582;2022-08-21T04:23:06;8.55;;;7.50;;
48363;SDS011;34170;54.364;18.582;2022-08-21T04:25:33;10.95;;;8.40;;
48363;SDS011;34170;54.364;18.582;2022-08-21T04:28:01;8.75;;;7.85;;
48363;SDS011;34170;54.364;18.582;2022-08-21T04:30:29;8.20;;;7.40;;
48363;SDS011;34170;54.364;18.582;2022-08-21T04:32:57;7.85;;;7.05;;
48363;SDS011;34170;54.364;18.582;2022-08-21T04:35:26;9.60;;;7.07;;
48363;SDS011;34170;54.364;18.582;2022-08-21T04:37:54;9.15;;;7.35;;
48363;SDS011;34170;54.364;18.582;2022-08-21T04:40:23;8.00;;;7.20;;
48363;SDS011;34170;54.364;18.582;2022-08-21T04:42:53;11.18;;;8.18;;
48363;SDS011;34170;54.364;18.582;2022-08-21T04:45:27;9.13;;;7.65;;
48363;SDS011;34170;54.364;18.582;2022-08-21T04:48:00;10.02;;;8.02;;
48363;SDS011;34170;54.364;18.582;2022-08-21T04:50:31;9.57;;;8.13;;
48363;SDS011;34170;54.364;18.582;2022-08-21T04:53:17;10.45;;;8.73;;
48363;SDS011;34170;54.364;18.582;2022-08-21T04:56:06;9.32;;;7.40;;
48363;SDS011;34170;54.364;18.582;2022-08-21T05:01:07;10.55;;;7.95;;
48363;SDS011;34170;54.364;18.582;2022-08-21T05:03:39;10.23;;;7.70;;
48363;SDS011;34170;54.364;18.582;2022-08-21T05:06:09;8.80;;;7.90;;
48363;SDS011;34170;54.364;18.582;2022-08-21T05:08:38;11.60;;;7.90;;
48363;SDS011;34170;54.364;18.582;2022-08-21T05:11:07;8.52;;;7.65;;
48363;SDS011;34170;54.364;18.582;2022-08-21T05:13:35;10.13;;;7.53;;
48363;SDS011;34170;54.364;18.582;2022-08-21T05:16:02;8.43;;;7.05;;
48363;SDS011;34170;54.364;18.582;2022-08-21T05:18:30;11.40;;;8.30;;
48363;SDS011;34170;54.364;18.582;2022-08-21T05:20:57;10.75;;;7.40;;
48363;SDS011;34170;54.364;18.582;2022-08-21T05:23:24;9.63;;;7.65;;
48363;SDS011;34170;54.364;18.582;2022-08-21T05:25:52;10.38;;;7.72;;
48363;SDS011;34170;54.364;18.582;2022-08-21T05:28:20;9.38;;;8.15;;
48363;SDS011;34170;54.364;18.582;2022-08-21T05:30:48;9.40;;;7.93;;
48363;SDS011;34170;54.364;18.582;2022-08-21T05:33:16;9.57;;;7.63;;
48363;SDS011;34170;54.364;18.582;2022-08-21T05:35:43;8.40;;;7.53;;
48363;SDS011;34170;54.364;18.582;2022-08-21T05:38:10;7.57;;;6.88;;
48363;SDS011;34170;54.364;18.582;2022-08-21T05:40:44;9.70;;;7.85;;
48363;SDS011;34170;54.364;18.582;2022-08-21T05:43:13;9.35;;;8.18;;
48363;SDS011;34170;54.364;18.582;2022-08-21T05:45:41;8.48;;;7.57;;
48363;SDS011;34170;54.364;18.582;2022-08-21T05:48:15;8.55;;;7.25;;
48363;SDS011;34170;54.364;18.582;2022-08-21T05:50:45;8.32;;;7.05;;
48363;SDS011;34170;54.364;18.582;2022-08-21T05:53:16;6.90;;;6.20;;
48363;SDS011;34170;54.364;18.582;2022-08-21T05:55:44;8.38;;;6.95;;
48363;SDS011;34170;54.364;18.582;2022-08-21T05:58:18;9.50;;;6.90;;
48363;SDS011;34170;54.364;18.582;2022-08-21T06:00:47;7.38;;;6.07;;
48363;SDS011;34170;54.364;18.582;2022-08-21T06:03:20;7.57;;;6.72;;
48363;SDS011;34170;54.364;18.582;2022-08-21T06:05:50;8.50;;;5.97;;
48363;SDS011;34170;54.364;18.582;2022-08-21T06:08:19;7.55;;;6.60;;
48363;SDS011;34170;54.364;18.582;2022-08-21T06:10:47;7.10;;;5.97;;
48363;SDS011;34170;54.364;18.582;2022-08-21T06:13:17;6.45;;;5.80;;
48363;SDS011;34170;54.364;18.582;2022-08-21T06:15:46;7.10;;;5.35;;
48363;SDS011;34170;54.364;18.582;2022-08-21T06:18:14;6.65;;;5.28;;
48363;SDS011;34170;54.364;18.582;2022-08-21T06:20:42;5.78;;;5.28;;
48363;SDS011;34170;54.364;18.582;2022-08-21T06:23:09;5.85;;;5.25;;
48363;SDS011;34170;54.364;18.582;2022-08-21T06:25:37;5.22;;;4.72;;
48363;SDS011;34170;54.364;18.582;2022-08-21T06:28:05;5.47;;;4.95;;
48363;SDS011;34170;54.364;18.582;2022-08-21T06:30:35;5.05;;;4.47;;
48363;SDS011;34170;54.364;18.582;2022-08-21T06:44:32;5.30;;;4.57;;
48363;SDS011;34170;54.364;18.582;2022-08-21T06:47:00;4.68;;;4.18;;
48363;SDS011;34170;54.364;18.582;2022-08-21T06:49:27;5.97;;;4.40;;
48363;SDS011;34170;54.364;18.582;2022-08-21T06:51:54;4.70;;;4.30;;
48363;SDS011;34170;54.364;18.582;2022-08-21T06:54:22;4.40;;;4.00;;
48363;SDS011;34170;54.364;18.582;2022-08-21T06:56:49;4.20;;;3.80;;
48363;SDS011;34170;54.364;18.582;2022-08-21T06:59:16;4.13;;;3.78;;
48363;SDS011;34170;54.364;18.582;2022-08-21T07:01:44;3.50;;;3.20;;
48363;SDS011;34170;54.364;18.582;2022-08-21T07:04:11;5.43;;;3.88;;
48363;SDS011;34170;54.364;18.582;2022-08-21T07:06:39;6.43;;;4.45;;
48363;SDS011;34170;54.364;18.582;2022-08-21T07:09:06;5.65;;;3.72;;
48363;SDS011;34170;54.364;18.582;2022-08-21T07:11:34;4.20;;;3.80;;
48363;SDS011;34170;54.364;18.582;2022-08-21T07:14:13;3.85;;;3.45;;
48363;SDS011;34170;54.364;18.582;2022-08-21T07:16:46;3.95;;;3.58;;
48363;SDS011;34170;54.364;18.582;2022-08-21T07:19:14;4.10;;;3.58;;
48363;SDS011;34170;54.364;18.582;2022-08-21T07:21:42;6.45;;;3.85;;
48363;SDS011;34170;54.364;18.582;2022-08-21T07:24:09;4.60;;;4.13;;
48363;SDS011;34170;54.364;18.582;2022-08-21T07:26:37;5.15;;;4.20;;
48363;SDS011;34170;54.364;18.582;2022-08-21T07:29:04;4.70;;;3.60;;
48363;SDS011;34170;54.364;18.582;2022-08-21T07:31:31;4.03;;;3.65;;
48363;SDS011;34170;54.364;18.582;2022-08-21T07:33:59;4.45;;;3.95;;
48363;SDS011;34170;54.364;18.582;2022-08-21T07:45:32;5.45;;;4.63;;
48363;SDS011;34170;54.364;18.582;2022-08-21T07:47:59;5.03;;;4.07;;
48363;SDS011;34170;54.364;18.582;2022-08-21T07:50:27;5.05;;;4.40;;
48363;SDS011;34170;54.364;18.582;2022-08-21T07:57:26;5.72;;;4.32;;
48363;SDS011;34170;54.364;18.582;2022-08-21T07:59:53;6.13;;;4.30;;
48363;SDS011;34170;54.364;18.582;2022-08-21T08:02:22;4.25;;;3.67;;
48363;SDS011;34170;54.364;18.582;2022-08-21T08:04:52;5.13;;;4.10;;
48363;SDS011;34170;54.364;18.582;2022-08-21T08:20:54;5.28;;;3.47;;
48363;SDS011;34170;54.364;18.582;2022-08-21T08:23:21;4.90;;;3.50;;
48363;SDS011;34170;54.364;18.582;2022-08-21T08:25:49;5.38;;;3.80;;
48363;SDS011;34170;54.364;18.582;2022-08-21T08:28:17;5.22;;;3.45;;
48363;SDS011;34170;54.364;18.582;2022-08-21T08:30:45;5.13;;;3.47;;
48363;SDS011;34170;54.364;18.582;2022-08-21T08:33:13;4.97;;;3.55;;
48363;SDS011;34170;54.364;18.582;2022-08-21T08:35:45;4.47;;;3.50;;
48363;SDS011;34170;54.364;18.582;2022-08-21T08:38:14;5.35;;;3.30;;
48363;SDS011;34170;54.364;18.582;2022-08-21T08:40:55;5.97;;;3.53;;
48363;SDS011;34170;54.364;18.582;2022-08-21T08:43:49;7.20;;;3.85;;
48363;SDS011;34170;54.364;18.582;2022-08-21T08:46:31;7.72;;;4.63;;
48363;SDS011;34170;54.364;18.582;2022-08-21T08:51:46;6.38;;;3.80;;
48363;SDS011;34170;54.364;18.582;2022-08-21T08:54:21;5.00;;;3.28;;
48363;SDS011;34170;54.364;18.582;2022-08-21T08:56:59;4.63;;;2.92;;
48363;SDS011;34170;54.364;18.582;2022-08-21T08:59:42;5.63;;;3.63;;
48363;SDS011;34170;54.364;18.582;2022-08-21T09:02:12;4.90;;;3.08;;
48363;SDS011;34170;54.364;18.582;2022-08-21T09:04:41;4.05;;;2.60;;
48363;SDS011;34170;54.364;18.582;2022-08-21T09:10:20;4.22;;;2.75;;
48363;SDS011;34170;54.364;18.582;2022-08-21T09:15:50;5.30;;;2.85;;
48363;SDS011;34170;54.364;18.582;2022-08-21T09:18:43;4.45;;;3.15;;
48363;SDS011;34170;54.364;18.582;2022-08-21T09:21:27;5.93;;;3.00;;
48363;SDS011;34170;54.364;18.582;2022-08-21T09:27:09;5.28;;;3.72;;
48363;SDS011;34170;54.364;18.582;2022-08-21T09:29:40;4.20;;;3.38;;
48363;SDS011;34170;54.364;18.582;2022-08-21T09:32:19;6.13;;;3.80;;
48363;SDS011;34170;54.364;18.582;2022-08-21T09:35:08;5.47;;;3.45;;
48363;SDS011;34170;54.364;18.582;2022-08-21T09:40:45;6.75;;;3.58;;
48363;SDS011;34170;54.364;18.582;2022-08-21T09:45:42;6.18;;;3.47;;
48363;SDS011;34170;54.364;18.582;2022-08-21T09:50:42;5.95;;;3.47;;
48363;SDS011;34170;54.364;18.582;2022-08-21T09:53:15;9.10;;;3.90;;
48363;SDS011;34170;54.364;18.582;2022-08-21T09:55:50;9.23;;;3.95;;
48363;SDS011;34170;54.364;18.582;2022-08-21T09:58:38;11.57;;;4.55;;
48363;SDS011;34170;54.364;18.582;2022-08-21T10:01:12;8.32;;;3.25;;
48363;SDS011;34170;54.364;18.582;2022-08-21T10:03:47;5.18;;;3.53;;
48363;SDS011;34170;54.364;18.582;2022-08-21T10:06:23;7.88;;;4.00;;
48363;SDS011;34170;54.364;18.582;2022-08-21T10:12:06;9.27;;;4.40;;
48363;SDS011;34170;54.364;18.582;2022-08-21T10:14:55;6.38;;;3.10;;
48363;SDS011;34170;54.364;18.582;2022-08-21T10:17:43;8.32;;;3.67;;
48363;SDS011;34170;54.364;18.582;2022-08-21T10:20:20;7.80;;;3.55;;
48363;SDS011;34170;54.364;18.582;2022-08-21T10:26:29;5.32;;;2.65;;
48363;SDS011;34170;54.364;18.582;2022-08-21T10:38:01;5.18;;;4.68;;
48363;SDS011;34170;54.364;18.582;2022-08-21T10:40:36;4.28;;;2.72;;
48363;SDS011;34170;54.364;18.582;2022-08-21T10:43:47;3.40;;;2.28;;
48363;SDS011;34170;54.364;18.582;2022-08-21T10:46:34;6.32;;;2.55;;
48363;SDS011;34170;54.364;18.582;2022-08-21T10:54:54;4.45;;;2.10;;
48363;SDS011;34170;54.364;18.582;2022-08-21T11:00:43;8.18;;;2.42;;
48363;SDS011;34170;54.364;18.582;2022-08-21T11:03:16;4.35;;;2.35;;
48363;SDS011;34170;54.364;18.582;2022-08-21T11:05:52;4.20;;;2.22;;
48363;SDS011;34170;54.364;18.582;2022-08-21T11:08:29;3.58;;;2.45;;
48363;SDS011;34170;54.364;18.582;2022-08-21T11:11:04;4.53;;;2.40;;
48363;SDS011;34170;54.364;18.582;2022-08-21T11:13:49;2.97;;;1.98;;
48363;SDS011;34170;54.364;18.582;2022-08-21T11:16:36;4.82;;;2.40;;
48363;SDS011;34170;54.364;18.582;2022-08-21T11:19:10;2.80;;;2.05;;
48363;SDS011;34170;54.364;18.582;2022-08-21T11:21:45;3.58;;;2.35;;
48363;SDS011;34170;54.364;18.582;2022-08-21T11:24:29;3.40;;;2.05;;
48363;SDS011;34170;54.364;18.582;2022-08-21T11:30:03;4.13;;;2.25;;
48363;SDS011;34170;54.364;18.582;2022-08-21T11:56:06;3.50;;;2.10;;
48363;SDS011;34170;54.364;18.582;2022-08-21T11:58:41;3.10;;;1.73;;
48363;SDS011;34170;54.364;18.582;2022-08-21T12:01:28;3.63;;;1.75;;
48363;SDS011;34170;54.364;18.582;2022-08-21T12:04:02;4.55;;;1.83;;
48363;SDS011;34170;54.364;18.582;2022-08-21T12:06:35;5.07;;;2.13;;
48363;SDS011;34170;54.364;18.582;2022-08-21T12:09:06;3.50;;;2.08;;
48363;SDS011;34170;54.364;18.582;2022-08-21T12:11:46;2.63;;;1.63;;
48363;SDS011;34170;54.364;18.582;2022-08-21T12:14:16;2.72;;;1.40;;
48363;SDS011;34170;54.364;18.582;2022-08-21T12:16:46;5.25;;;1.73;;
48363;SDS011;34170;54.364;18.582;2022-08-21T12:27:23;3.42;;;1.27;;
48363;SDS011;34170;54.364;18.582;2022-08-21T12:29:56;4.93;;;1.60;;
48363;SDS011;34170;54.364;18.582;2022-08-21T12:35:15;4.75;;;1.90;;
48363;SDS011;34170;54.364;18.582;2022-08-21T12:38:07;5.10;;;2.45;;
48363;SDS011;34170;54.364;18.582;2022-08-21T12:40:43;5.13;;;1.95;;
48363;SDS011;34170;54.364;18.582;2022-08-21T12:43:20;3.95;;;2.10;;
48363;SDS011;34170;54.364;18.582;2022-08-21T12:45:54;5.70;;;1.83;;
48363;SDS011;34170;54.364;18.582;2022-08-21T12:53:46;4.63;;;2.10;;
48363;SDS011;34170;54.364;18.582;2022-08-21T12:56:21;3.83;;;1.58;;
48363;SDS011;34170;54.364;18.582;2022-08-21T12:58:51;3.08;;;1.75;;
48363;SDS011;34170;54.364;18.582;2022-08-21T13:01:24;3.70;;;1.40;;
48363;SDS011;34170;54.364;18.582;2022-08-21T13:03:57;3.90;;;1.80;;
48363;SDS011;34170;54.364;18.582;2022-08-21T13:06:32;5.47;;;1.30;;
48363;SDS011;34170;54.364;18.582;2022-08-21T13:09:07;3.42;;;1.73;;
48363;SDS011;34170;54.364;18.582;2022-08-21T13:11:39;3.05;;;1.15;;
48363;SDS011;34170;54.364;18.582;2022-08-21T13:14:15;4.80;;;1.13;;
48363;SDS011;34170;54.364;18.582;2022-08-21T13:16:53;5.65;;;1.40;;
48363;SDS011;34170;54.364;18.582;2022-08-21T13:19:23;5.20;;;1.30;;
48363;SDS011;34170;54.364;18.582;2022-08-21T13:21:51;2.78;;;1.08;;
48363;SDS011;34170;54.364;18.582;2022-08-21T13:24:21;2.65;;;1.25;;
48363;SDS011;34170;54.364;18.582;2022-08-21T13:27:19;3.03;;;1.20;;
48363;SDS011;34170;54.364;18.582;2022-08-21T13:29:49;3.45;;;1.33;;
48363;SDS011;34170;54.364;18.582;2022-08-21T13:32:28;3.08;;;1.35;;
48363;SDS011;34170;54.364;18.582;2022-08-21T13:34:59;2.63;;;1.30;;
48363;SDS011;34170;54.364;18.582;2022-08-21T13:37:36;3.67;;;1.00;;
48363;SDS011;34170;54.364;18.582;2022-08-21T13:40:09;3.67;;;1.20;;
48363;SDS011;34170;54.364;18.582;2022-08-21T13:42:41;3.63;;;1.20;;
48363;SDS011;34170;54.364;18.582;2022-08-21T13:45:15;3.25;;;0.98;;
48363;SDS011;34170;54.364;18.582;2022-08-21T13:47:45;1.92;;;1.00;;
48363;SDS011;34170;54.364;18.582;2022-08-21T13:50:15;3.38;;;1.13;;
48363;SDS011;34170;54.364;18.582;2022-08-21T13:52:48;2.63;;;1.33;;
48363;SDS011;34170;54.364;18.582;2022-08-21T13:55:21;2.38;;;1.02;;
48363;SDS011;34170;54.364;18.582;2022-08-21T13:57:58;2.55;;;1.02;;
48363;SDS011;34170;54.364;18.582;2022-08-21T14:00:28;2.70;;;1.30;;
48363;SDS011;34170;54.364;18.582;2022-08-21T14:03:03;3.80;;;1.17;;
48363;SDS011;34170;54.364;18.582;2022-08-21T14:05:37;2.55;;;1.23;;
48363;SDS011;34170;54.364;18.582;2022-08-21T14:08:14;2.13;;;1.10;;
48363;SDS011;34170;54.364;18.582;2022-08-21T14:10:56;4.47;;;1.08;;
48363;SDS011;34170;54.364;18.582;2022-08-21T14:16:21;2.60;;;0.80;;
48363;SDS011;34170;54.364;18.582;2022-08-21T14:24:38;3.33;;;1.20;;
48363;SDS011;34170;54.364;18.582;2022-08-21T14:27:05;2.78;;;1.20;;
48363;SDS011;34170;54.364;18.582;2022-08-21T14:29:38;3.95;;;1.05;;
48363;SDS011;34170;54.364;18.582;2022-08-21T14:32:18;2.47;;;1.10;;
48363;SDS011;34170;54.364;18.582;2022-08-21T14:34:51;5.45;;;1.60;;
48363;SDS011;34170;54.364;18.582;2022-08-21T14:37:21;2.53;;;0.88;;
48363;SDS011;34170;54.364;18.582;2022-08-21T14:39:50;4.18;;;1.70;;
48363;SDS011;34170;54.364;18.582;2022-08-21T14:42:17;3.20;;;0.90;;
48363;SDS011;34170;54.364;18.582;2022-08-21T14:44:45;6.15;;;1.27;;
48363;SDS011;34170;54.364;18.582;2022-08-21T14:47:13;2.30;;;1.20;;
48363;SDS011;34170;54.364;18.582;2022-08-21T14:49:40;3.40;;;1.02;;
48363;SDS011;34170;54.364;18.582;2022-08-21T14:52:07;3.40;;;1.27;;
48363;SDS011;34170;54.364;18.582;2022-08-21T14:54:35;3.33;;;1.20;;
48363;SDS011;34170;54.364;18.582;2022-08-21T14:57:06;2.25;;;1.13;;
48363;SDS011;34170;54.364;18.582;2022-08-21T14:59:36;2.83;;;0.70;;
48363;SDS011;34170;54.364;18.582;2022-08-21T15:02:04;5.00;;;3.72;;
48363;SDS011;34170;54.364;18.582;2022-08-21T15:04:33;2.38;;;1.23;;
48363;SDS011;34170;54.364;18.582;2022-08-21T15:07:01;2.63;;;1.13;;
48363;SDS011;34170;54.364;18.582;2022-08-21T15:09:29;1.40;;;0.88;;
48363;SDS011;34170;54.364;18.582;2022-08-21T15:11:57;2.08;;;0.95;;
48363;SDS011;34170;54.364;18.582;2022-08-21T15:14:28;2.65;;;1.45;;
48363;SDS011;34170;54.364;18.582;2022-08-21T15:16:57;3.28;;;1.23;;
48363;SDS011;34170;54.364;18.582;2022-08-21T15:19:25;2.88;;;1.10;;
48363;SDS011;34170;54.364;18.582;2022-08-21T15:21:53;3.80;;;0.93;;
48363;SDS011;34170;54.364;18.582;2022-08-21T15:24:20;3.25;;;1.00;;
48363;SDS011;34170;54.364;18.582;2022-08-21T15:26:48;4.07;;;1.40;;
48363;SDS011;34170;54.364;18.582;2022-08-21T15:29:16;3.47;;;1.02;;
48363;SDS011;34170;54.364;18.582;2022-08-21T15:34:21;3.60;;;1.27;;
48363;SDS011;34170;54.364;18.582;2022-08-21T15:36:56;4.35;;;1.02;;
48363;SDS011;34170;54.364;18.582;2022-08-21T15:39:25;6.38;;;1.50;;
48363;SDS011;34170;54.364;18.582;2022-08-21T15:41:57;4.63;;;1.40;;
48363;SDS011;34170;54.364;18.582;2022-08-21T15:44:28;5.55;;;1.60;;
48363;SDS011;34170;54.364;18.582;2022-08-21T15:46:56;2.40;;;1.25;;
48363;SDS011;34170;54.364;18.582;2022-08-21T15:49:25;8.27;;;1.73;;
48363;SDS011;34170;54.364;18.582;2022-08-21T15:51:53;2.92;;;1.00;;
48363;SDS011;34170;54.364;18.582;2022-08-21T15:54:20;2.60;;;1.50;;
48363;SDS011;34170;54.364;18.582;2022-08-21T15:56:47;4.07;;;1.02;;
48363;SDS011;34170;54.364;18.582;2022-08-21T15:59:18;3.13;;;1.27;;
48363;SDS011;34170;54.364;18.582;2022-08-21T16:04:26;4.57;;;1.75;;
48363;SDS011;34170;54.364;18.582;2022-08-21T16:06:54;4.85;;;1.40;;
48363;SDS011;34170;54.364;18.582;2022-08-21T16:09:31;3.58;;;1.73;;
48363;SDS011;34170;54.364;18.582;2022-08-21T16:11:59;5.18;;;1.88;;
48363;SDS011;34170;54.364;18.582;2022-08-21T16:14:28;5.47;;;1.92;;
48363;SDS011;34170;54.364;18.582;2022-08-21T16:16:57;6.80;;;1.80;;
48363;SDS011;34170;54.364;18.582;2022-08-21T16:19:26;6.07;;;1.50;;
48363;SDS011;34170;54.364;18.582;2022-08-21T16:21:56;4.30;;;1.50;;
48363;SDS011;34170;54.364;18.582;2022-08-21T16:24:24;4.80;;;1.45;;
48363;SDS011;34170;54.364;18.582;2022-08-21T16:26:52;2.95;;;1.25;;
48363;SDS011;34170;54.364;18.582;2022-08-21T16:29:25;4.43;;;2.17;;
48363;SDS011;34170;54.364;18.582;2022-08-21T16:31:57;5.75;;;1.60;;
48363;SDS011;34170;54.364;18.582;2022-08-21T16:34:25;4.35;;;1.40;;
48363;SDS011;34170;54.364;18.582;2022-08-21T16:36:54;4.30;;;1.27;;
48363;SDS011;34170;54.364;18.582;2022-08-21T16:39:21;7.32;;;3.92;;
48363;SDS011;34170;54.364;18.582;2022-08-21T16:41:49;4.50;;;1.70;;
48363;SDS011;34170;54.364;18.582;2022-08-21T16:44:18;7.57;;;1.70;;
48363;SDS011;34170;54.364;18.582;2022-08-21T16:46:50;6.70;;;1.77;;
48363;SDS011;34170;54.364;18.582;2022-08-21T16:49:18;4.65;;;1.20;;
48363;SDS011;34170;54.364;18.582;2022-08-21T16:51:45;5.13;;;1.70;;
48363;SDS011;34170;54.364;18.582;2022-08-21T16:54:14;4.55;;;1.50;;
48363;SDS011;34170;54.364;18.582;2022-08-21T16:56:42;4.15;;;1.20;;
48363;SDS011;34170;54.364;18.582;2022-08-21T16:59:13;2.42;;;0.93;;
48363;SDS011;34170;54.364;18.582;2022-08-21T17:01:43;5.13;;;1.23;;
48363;SDS011;34170;54.364;18.582;2022-08-21T17:04:12;6.32;;;1.50;;
48363;SDS011;34170;54.364;18.582;2022-08-21T17:06:39;3.17;;;1.23;;
48363;SDS011;34170;54.364;18.582;2022-08-21T17:09:07;3.15;;;1.30;;
48363;SDS011;34170;54.364;18.582;2022-08-21T17:11:35;3.13;;;1.40;;
48363;SDS011;34170;54.364;18.582;2022-08-21T17:14:10;3.15;;;1.70;;
48363;SDS011;34170;54.364;18.582;2022-08-21T17:16:40;3.20;;;1.95;;
48363;SDS011;34170;54.364;18.582;2022-08-21T17:19:11;4.50;;;1.90;;
48363;SDS011;34170;54.364;18.582;2022-08-21T17:21:39;4.55;;;1.63;;
48363;SDS011;34170;54.364;18.582;2022-08-21T17:24:06;4.43;;;1.38;;
48363;SDS011;34170;54.364;18.582;2022-08-21T17:26:35;6.43;;;1.35;;
48363;SDS011;34170;54.364;18.582;2022-08-21T17:29:03;2.60;;;1.08;;
48363;SDS011;34170;54.364;18.582;2022-08-21T17:31:35;3.85;;;1.38;;
48363;SDS011;34170;54.364;18.582;2022-08-21T17:34:05;2.60;;;0.98;;
48363;SDS011;34170;54.364;18.582;2022-08-21T17:36:32;2.38;;;0.85;;
48363;SDS011;34170;54.364;18.582;2022-08-21T17:39:00;4.70;;;1.23;;
48363;SDS011;34170;54.364;18.582;2022-08-21T17:41:27;3.70;;;1.10;;
48363;SDS011;34170;54.364;18.582;2022-08-21T17:43:55;3.63;;;0.77;;
48363;SDS011;34170;54.364;18.582;2022-08-21T17:46:23;8.98;;;1.58;;
48363;SDS011;34170;54.364;18.582;2022-08-21T17:48:54;5.38;;;1.70;;
48363;SDS011;34170;54.364;18.582;2022-08-21T17:51:22;2.80;;;1.30;;
48363;SDS011;34170;54.364;18.582;2022-08-21T17:53:50;3.28;;;1.45;;
48363;SDS011;34170;54.364;18.582;2022-08-21T17:56:17;2.53;;;1.25;;
48363;SDS011;34170;54.364;18.582;2022-08-21T17:58:50;4.65;;;1.25;;
48363;SDS011;34170;54.364;18.582;2022-08-21T18:01:18;4.93;;;1.05;;
48363;SDS011;34170;54.364;18.582;2022-08-21T18:03:46;5.50;;;1.27;;
48363;SDS011;34170;54.364;18.582;2022-08-21T18:06:14;3.30;;;1.10;;
48363;SDS011;34170;54.364;18.582;2022-08-21T18:08:44;4.88;;;1.20;;
48363;SDS011;34170;54.364;18.582;2022-08-21T18:11:13;2.53;;;1.15;;
48363;SDS011;34170;54.364;18.582;2022-08-21T18:13:51;2.38;;;1.10;;
48363;SDS011;34170;54.364;18.582;2022-08-21T18:16:20;2.75;;;1.42;;
48363;SDS011;34170;54.364;18.582;2022-08-21T18:18:48;3.58;;;1.58;;
48363;SDS011;34170;54.364;18.582;2022-08-21T18:21:17;3.58;;;1.20;;
48363;SDS011;34170;54.364;18.582;2022-08-21T18:23:45;5.40;;;1.25;;